NATIONAL KEY DEER NWR FL US current weather conditions

sailwx.info

Wind from 343 at 5 knots gusting 8

Air temperature 26.1° C
Dewpoint 19.0° C

Last reported at 2017-Feb-24 18:38 UTC.
Time now 2017-Feb-24 19:34 UTC

Location: N 24°43' W 081°23'.
View on Google Maps.

See reports from other nearby stations

  
Tides and Currents Weather Stations Pressure Air Temp Water Temp Dewpoint Dewpoint Depression Visibility Wind Speed Wind Dir Waves Ship Positions
date/time (UTC)wind fromknots sea level pressurealtimeterstation pressurevisibilityair tempwater tempwave heightnotes
2017-Feb-24 18:38 343 5 gusting 8 26.1
2017-Feb-24 17:38 007 3 gusting 7 25.6
2017-Feb-24 16:38 016 4 gusting 9 26.1
2017-Feb-24 15:38 008 5 gusting 9 25.6
2017-Feb-24 14:38 356 4 gusting 10 25.6
2017-Feb-24 13:38 353 5 gusting 9 23.9
2017-Feb-24 12:38 310 2 gusting 5 20.6
2017-Feb-24 11:38 309 3 gusting 6 21.1
2017-Feb-24 10:38 269 1 gusting 4 20.0
2017-Feb-24 09:38 297 2 gusting 5 20.0
2017-Feb-24 08:38 281 2 gusting 3 19.4
2017-Feb-24 07:38 284 0 gusting 3 19.4
2017-Feb-24 06:38 292 2 gusting 6 20.0
2017-Feb-24 05:38 303 3 gusting 8 20.6
2017-Feb-24 04:38 307 4 gusting 9 21.1
2017-Feb-24 03:38 310 4 gusting 10 21.7
2017-Feb-24 02:38 306 4 gusting 10 21.1
2017-Feb-24 01:38 291 5 gusting 10 21.1
2017-Feb-24 00:38 303 6 gusting 12 21.7
2017-Feb-23 23:38 286 5 gusting 11 21.7
2017-Feb-23 22:38 294 5 gusting 13 23.3
2017-Feb-23 21:38 304 6 gusting 15 24.4
2017-Feb-23 20:38 300 6 gusting 13 24.4
2017-Feb-23 19:38 296 7 gusting 16 25.0
2017-Feb-23 18:38 296 7 gusting 15 25.6
2017-Feb-23 17:38 284 6 gusting 16 26.1
2017-Feb-23 16:38 273 7 gusting 13 25.6
2017-Feb-23 15:38 275 5 gusting 13 25.6
2017-Feb-23 14:38 245 3 gusting 7 23.3
2017-Feb-23 13:38 253 5 gusting 18 19.4
2017-Feb-23 12:38 272 3 gusting 6 20.0
2017-Feb-23 11:38 266 3 gusting 7 20.0
2017-Feb-23 10:38 271 3 gusting 9 20.0
2017-Feb-23 09:38 272 4 gusting 9 20.0
2017-Feb-23 08:38 281 2 gusting 7 19.4
2017-Feb-23 07:38 282 4 gusting 8 20.6
2017-Feb-23 06:38 287 3 gusting 8 20.0
2017-Feb-23 05:38 311 4 gusting 10 20.0
2017-Feb-23 04:38 297 4 gusting 10 20.6
2017-Feb-23 03:38 292 3 gusting 9 20.0
2017-Feb-23 02:38 259 1 gusting 6 18.9
2017-Feb-23 01:38 245 3 gusting 8 20.0
2017-Feb-23 00:38 286 6 gusting 13 20.0
2017-Feb-22 23:38 303 6 gusting 13 21.1
2017-Feb-22 22:38 296 6 gusting 11 22.8
2017-Feb-22 21:38 294 6 gusting 12 23.9
2017-Feb-22 20:38 266 5 gusting 10 25.0
2017-Feb-22 19:38 256 6 gusting 11 23.9